sensor_id;sensor_type;location;lat;lon;timestamp;P1;P2;P0
49644;PMS5003;36494;50.730;-1.932;2023-05-07T00:01:27;20;19;
49644;PMS5003;36494;50.730;-1.932;2023-05-07T00:03:52;13;13;
49644;PMS5003;36494;50.730;-1.932;2023-05-07T00:06:17;16;14;
49644;PMS5003;36494;50.730;-1.932;2023-05-07T00:08:43;14;12;
49644;PMS5003;36494;50.730;-1.932;2023-05-07T00:11:08;14;14;
49644;PMS5003;36494;50.730;-1.932;2023-05-07T00:13:33;14;13;
49644;PMS5003;36494;50.730;-1.932;2023-05-07T00:15:58;11;11;
49644;PMS5003;36494;50.730;-1.932;2023-05-07T00:18:24;16;15;
49644;PMS5003;36494;50.730;-1.932;2023-05-07T00:20:50;20;17;
49644;PMS5003;36494;50.730;-1.932;2023-05-07T00:23:15;14;13;
49644;PMS5003;36494;50.730;-1.932;2023-05-07T00:25:41;13;12;
49644;PMS5003;36494;50.730;-1.932;2023-05-07T00:28:06;11;11;
49644;PMS5003;36494;50.730;-1.932;2023-05-07T00:30:32;19;18;
49644;PMS5003;36494;50.730;-1.932;2023-05-07T00:32:57;14;12;
49644;PMS5003;36494;50.730;-1.932;2023-05-07T00:35:23;14;13;
49644;PMS5003;36494;50.730;-1.932;2023-05-07T00:37:47;13;11;
49644;PMS5003;36494;50.730;-1.932;2023-05-07T00:40:13;12;11;
49644;PMS5003;36494;50.730;-1.932;2023-05-07T00:42:38;26;19;
49644;PMS5003;36494;50.730;-1.932;2023-05-07T00:45:03;23;20;
49644;PMS5003;36494;50.730;-1.932;2023-05-07T00:47:28;29;23;
49644;PMS5003;36494;50.730;-1.932;2023-05-07T00:49:54;20;16;
49644;PMS5003;36494;50.730;-1.932;2023-05-07T00:52:20;21;16;
49644;PMS5003;36494;50.730;-1.932;2023-05-07T00:54:45;19;17;
49644;PMS5003;36494;50.730;-1.932;2023-05-07T00:57:11;13;12;
49644;PMS5003;36494;50.730;-1.932;2023-05-07T00:59:37;16;14;
49644;PMS5003;36494;50.730;-1.932;2023-05-07T01:02:02;18;14;
49644;PMS5003;36494;50.730;-1.932;2023-05-07T01:04:28;19;17;
49644;PMS5003;36494;50.730;-1.932;2023-05-07T01:06:53;15;10;
49644;PMS5003;36494;50.730;-1.932;2023-05-07T01:09:19;16;12;
49644;PMS5003;36494;50.730;-1.932;2023-05-07T01:11:44;13;11;
49644;PMS5003;36494;50.730;-1.932;2023-05-07T01:14:09;10;9;
49644;PMS5003;36494;50.730;-1.932;2023-05-07T01:16:34;17;13;
49644;PMS5003;36494;50.730;-1.932;2023-05-07T01:19:00;14;14;
49644;PMS5003;36494;50.730;-1.932;2023-05-07T01:21:26;15;14;
49644;PMS5003;36494;50.730;-1.932;2023-05-07T01:23:51;10;9;
49644;PMS5003;36494;50.730;-1.932;2023-05-07T01:26:16;23;21;
49644;PMS5003;36494;50.730;-1.932;2023-05-07T01:28:42;17;14;
49644;PMS5003;36494;50.730;-1.932;2023-05-07T01:31:07;23;19;
49644;PMS5003;36494;50.730;-1.932;2023-05-07T01:33:33;20;16;
49644;PMS5003;36494;50.730;-1.932;2023-05-07T01:35:58;12;12;
49644;PMS5003;36494;50.730;-1.932;2023-05-07T01:38:24;13;13;
49644;PMS5003;36494;50.730;-1.932;2023-05-07T01:40:49;29;22;
49644;PMS5003;36494;50.730;-1.932;2023-05-07T01:43:15;14;12;
49644;PMS5003;36494;50.730;-1.932;2023-05-07T01:45:40;14;13;
49644;PMS5003;36494;50.730;-1.932;2023-05-07T01:48:05;12;12;
49644;PMS5003;36494;50.730;-1.932;2023-05-07T01:50:30;14;12;
49644;PMS5003;36494;50.730;-1.932;2023-05-07T01:52:56;10;7;
49644;PMS5003;36494;50.730;-1.932;2023-05-07T01:55:21;10;9;
49644;PMS5003;36494;50.730;-1.932;2023-05-07T01:57:46;10;10;
49644;PMS5003;36494;50.730;-1.932;2023-05-07T02:00:12;9;9;
49644;PMS5003;36494;50.730;-1.932;2023-05-07T02:02:37;13;12;
49644;PMS5003;36494;50.730;-1.932;2023-05-07T02:05:02;11;11;
49644;PMS5003;36494;50.730;-1.932;2023-05-07T02:07:27;13;12;
49644;PMS5003;36494;50.730;-1.932;2023-05-07T02:09:53;12;11;
49644;PMS5003;36494;50.730;-1.932;2023-05-07T02:12:18;9;8;
49644;PMS5003;36494;50.730;-1.932;2023-05-07T02:14:43;9;8;
49644;PMS5003;36494;50.730;-1.932;2023-05-07T02:17:08;11;11;
49644;PMS5003;36494;50.730;-1.932;2023-05-07T02:19:34;11;10;
49644;PMS5003;36494;50.730;-1.932;2023-05-07T02:21:59;8;7;
49644;PMS5003;36494;50.730;-1.932;2023-05-07T02:24:24;10;10;
49644;PMS5003;36494;50.730;-1.932;2023-05-07T02:26:49;11;11;
49644;PMS5003;36494;50.730;-1.932;2023-05-07T02:29:15;10;10;
49644;PMS5003;36494;50.730;-1.932;2023-05-07T02:31:41;12;11;
49644;PMS5003;36494;50.730;-1.932;2023-05-07T02:34:07;15;13;
49644;PMS5003;36494;50.730;-1.932;2023-05-07T02:36:32;13;12;
49644;PMS5003;36494;50.730;-1.932;2023-05-07T02:38:57;11;10;
49644;PMS5003;36494;50.730;-1.932;2023-05-07T02:41:22;12;11;
49644;PMS5003;36494;50.730;-1.932;2023-05-07T02:43:48;11;11;
49644;PMS5003;36494;50.730;-1.932;2023-05-07T02:46:14;15;14;
49644;PMS5003;36494;50.730;-1.932;2023-05-07T02:48:39;14;13;
49644;PMS5003;36494;50.730;-1.932;2023-05-07T02:51:04;16;14;
49644;PMS5003;36494;50.730;-1.932;2023-05-07T02:53:29;11;11;
49644;PMS5003;36494;50.730;-1.932;2023-05-07T02:55:56;15;14;
49644;PMS5003;36494;50.730;-1.932;2023-05-07T02:58:21;17;16;
49644;PMS5003;36494;50.730;-1.932;2023-05-07T03:00:46;17;14;
49644;PMS5003;36494;50.730;-1.932;2023-05-07T03:03:11;20;20;
49644;PMS5003;36494;50.730;-1.932;2023-05-07T03:05:36;14;13;
49644;PMS5003;36494;50.730;-1.932;2023-05-07T03:08:02;16;15;
49644;PMS5003;36494;50.730;-1.932;2023-05-07T03:10:27;17;16;
49644;PMS5003;36494;50.730;-1.932;2023-05-07T03:12:53;13;12;
49644;PMS5003;36494;50.730;-1.932;2023-05-07T03:15:18;14;12;
49644;PMS5003;36494;50.730;-1.932;2023-05-07T03:17:44;13;12;
49644;PMS5003;36494;50.730;-1.932;2023-05-07T03:20:10;15;14;
49644;PMS5003;36494;50.730;-1.932;2023-05-07T03:22:35;15;14;
49644;PMS5003;36494;50.730;-1.932;2023-05-07T03:25:00;12;12;
49644;PMS5003;36494;50.730;-1.932;2023-05-07T03:27:25;13;11;
49644;PMS5003;36494;50.730;-1.932;2023-05-07T03:29:50;14;14;
49644;PMS5003;36494;50.730;-1.932;2023-05-07T03:32:16;13;12;
49644;PMS5003;36494;50.730;-1.932;2023-05-07T03:34:42;12;12;
49644;PMS5003;36494;50.730;-1.932;2023-05-07T03:37:07;15;13;
49644;PMS5003;36494;50.730;-1.932;2023-05-07T03:39:32;14;13;
49644;PMS5003;36494;50.730;-1.932;2023-05-07T03:41:58;19;17;
49644;PMS5003;36494;50.730;-1.932;2023-05-07T03:44:23;17;16;
49644;PMS5003;36494;50.730;-1.932;2023-05-07T03:46:49;13;12;
49644;PMS5003;36494;50.730;-1.932;2023-05-07T03:49:14;18;16;
49644;PMS5003;36494;50.730;-1.932;2023-05-07T03:51:39;13;12;
49644;PMS5003;36494;50.730;-1.932;2023-05-07T03:54:05;17;16;
49644;PMS5003;36494;50.730;-1.932;2023-05-07T03:56:31;23;21;
49644;PMS5003;36494;50.730;-1.932;2023-05-07T03:58:56;23;21;
49644;PMS5003;36494;50.730;-1.932;2023-05-07T04:01:21;22;21;
49644;PMS5003;36494;50.730;-1.932;2023-05-07T04:03:46;27;24;
49644;PMS5003;36494;50.730;-1.932;2023-05-07T04:06:11;21;21;
49644;PMS5003;36494;50.730;-1.932;2023-05-07T04:08:37;20;19;
49644;PMS5003;36494;50.730;-1.932;2023-05-07T04:11:02;23;23;
49644;PMS5003;36494;50.730;-1.932;2023-05-07T04:13:28;24;23;
49644;PMS5003;36494;50.730;-1.932;2023-05-07T04:15:54;26;23;
49644;PMS5003;36494;50.730;-1.932;2023-05-07T04:18:19;28;25;
49644;PMS5003;36494;50.730;-1.932;2023-05-07T04:20:45;29;24;
49644;PMS5003;36494;50.730;-1.932;2023-05-07T04:23:10;22;21;
49644;PMS5003;36494;50.730;-1.932;2023-05-07T04:25:36;25;20;
49644;PMS5003;36494;50.730;-1.932;2023-05-07T04:28:01;22;21;
49644;PMS5003;36494;50.730;-1.932;2023-05-07T04:30:26;18;18;
49644;PMS5003;36494;50.730;-1.932;2023-05-07T04:32:52;22;20;
49644;PMS5003;36494;50.730;-1.932;2023-05-07T04:35:17;18;18;
49644;PMS5003;36494;50.730;-1.932;2023-05-07T04:37:42;23;23;
49644;PMS5003;36494;50.730;-1.932;2023-05-07T04:40:07;18;18;
49644;PMS5003;36494;50.730;-1.932;2023-05-07T04:42:32;23;22;
49644;PMS5003;36494;50.730;-1.932;2023-05-07T04:44:58;22;21;
49644;PMS5003;36494;50.730;-1.932;2023-05-07T04:47:23;20;19;
49644;PMS5003;36494;50.730;-1.932;2023-05-07T04:49:49;19;17;
49644;PMS5003;36494;50.730;-1.932;2023-05-07T04:52:14;18;17;
49644;PMS5003;36494;50.730;-1.932;2023-05-07T04:54:40;20;19;
49644;PMS5003;36494;50.730;-1.932;2023-05-07T04:57:06;22;22;
49644;PMS5003;36494;50.730;-1.932;2023-05-07T04:59:31;17;16;
49644;PMS5003;36494;50.730;-1.932;2023-05-07T05:01:56;17;17;
49644;PMS5003;36494;50.730;-1.932;2023-05-07T05:04:22;20;17;
49644;PMS5003;36494;50.730;-1.932;2023-05-07T05:06:48;23;21;
49644;PMS5003;36494;50.730;-1.932;2023-05-07T05:09:13;17;16;
49644;PMS5003;36494;50.730;-1.932;2023-05-07T05:11:38;19;19;
49644;PMS5003;36494;50.730;-1.932;2023-05-07T05:14:03;17;16;
49644;PMS5003;36494;50.730;-1.932;2023-05-07T05:16:29;28;25;
49644;PMS5003;36494;50.730;-1.932;2023-05-07T05:18:54;19;18;
49644;PMS5003;36494;50.730;-1.932;2023-05-07T05:21:20;16;15;
49644;PMS5003;36494;50.730;-1.932;2023-05-07T05:23:46;17;16;
49644;PMS5003;36494;50.730;-1.932;2023-05-07T05:26:11;18;16;
49644;PMS5003;36494;50.730;-1.932;2023-05-07T05:28:37;16;16;
49644;PMS5003;36494;50.730;-1.932;2023-05-07T05:31:02;18;18;
49644;PMS5003;36494;50.730;-1.932;2023-05-07T05:33:28;14;13;
49644;PMS5003;36494;50.730;-1.932;2023-05-07T05:35:53;18;18;
49644;PMS5003;36494;50.730;-1.932;2023-05-07T05:38:19;14;13;
49644;PMS5003;36494;50.730;-1.932;2023-05-07T05:40:45;16;14;
49644;PMS5003;36494;50.730;-1.932;2023-05-07T05:43:10;14;14;
49644;PMS5003;36494;50.730;-1.932;2023-05-07T05:45:35;15;15;
49644;PMS5003;36494;50.730;-1.932;2023-05-07T05:48:01;15;15;
49644;PMS5003;36494;50.730;-1.932;2023-05-07T05:50:26;14;13;
49644;PMS5003;36494;50.730;-1.932;2023-05-07T05:52:52;12;11;
49644;PMS5003;36494;50.730;-1.932;2023-05-07T05:55:17;18;14;
49644;PMS5003;36494;50.730;-1.932;2023-05-07T05:57:42;17;16;
49644;PMS5003;36494;50.730;-1.932;2023-05-07T06:00:08;16;16;
49644;PMS5003;36494;50.730;-1.932;2023-05-07T06:02:33;16;15;
49644;PMS5003;36494;50.730;-1.932;2023-05-07T06:04:59;15;15;
49644;PMS5003;36494;50.730;-1.932;2023-05-07T06:07:24;17;17;
49644;PMS5003;36494;50.730;-1.932;2023-05-07T06:09:50;21;21;
49644;PMS5003;36494;50.730;-1.932;2023-05-07T06:12:15;17;17;
49644;PMS5003;36494;50.730;-1.932;2023-05-07T06:14:42;21;20;
49644;PMS5003;36494;50.730;-1.932;2023-05-07T06:17:06;16;16;
49644;PMS5003;36494;50.730;-1.932;2023-05-07T06:19:31;20;18;
49644;PMS5003;36494;50.730;-1.932;2023-05-07T06:21:57;24;22;
49644;PMS5003;36494;50.730;-1.932;2023-05-07T06:24:22;20;19;
49644;PMS5003;36494;50.730;-1.932;2023-05-07T06:26:47;19;17;
49644;PMS5003;36494;50.730;-1.932;2023-05-07T06:29:13;20;20;
49644;PMS5003;36494;50.730;-1.932;2023-05-07T06:31:39;22;19;
49644;PMS5003;36494;50.730;-1.932;2023-05-07T06:34:04;18;17;
49644;PMS5003;36494;50.730;-1.932;2023-05-07T06:36:29;18;18;
49644;PMS5003;36494;50.730;-1.932;2023-05-07T06:38:55;18;15;
49644;PMS5003;36494;50.730;-1.932;2023-05-07T06:41:20;16;15;
49644;PMS5003;36494;50.730;-1.932;2023-05-07T06:43:46;17;16;
49644;PMS5003;36494;50.730;-1.932;2023-05-07T06:46:11;17;16;
49644;PMS5003;36494;50.730;-1.932;2023-05-07T06:48:36;13;13;
49644;PMS5003;36494;50.730;-1.932;2023-05-07T06:51:02;16;14;
49644;PMS5003;36494;50.730;-1.932;2023-05-07T06:53:27;18;18;
49644;PMS5003;36494;50.730;-1.932;2023-05-07T06:55:53;14;14;
49644;PMS5003;36494;50.730;-1.932;2023-05-07T06:58:18;12;12;
49644;PMS5003;36494;50.730;-1.932;2023-05-07T07:00:43;16;15;
49644;PMS5003;36494;50.730;-1.932;2023-05-07T07:03:09;15;14;
49644;PMS5003;36494;50.730;-1.932;2023-05-07T07:05:35;14;14;
49644;PMS5003;36494;50.730;-1.932;2023-05-07T07:08:00;15;14;
49644;PMS5003;36494;50.730;-1.932;2023-05-07T07:10:26;17;16;
49644;PMS5003;36494;50.730;-1.932;2023-05-07T07:12:51;17;15;
49644;PMS5003;36494;50.730;-1.932;2023-05-07T07:15:16;17;15;
49644;PMS5003;36494;50.730;-1.932;2023-05-07T07:17:42;12;12;
49644;PMS5003;36494;50.730;-1.932;2023-05-07T07:20:08;17;16;
49644;PMS5003;36494;50.730;-1.932;2023-05-07T07:22:33;13;13;
49644;PMS5003;36494;50.730;-1.932;2023-05-07T07:24:58;15;14;
49644;PMS5003;36494;50.730;-1.932;2023-05-07T07:27:24;19;17;
49644;PMS5003;36494;50.730;-1.932;2023-05-07T07:29:49;17;15;
49644;PMS5003;36494;50.730;-1.932;2023-05-07T07:32:15;19;19;
49644;PMS5003;36494;50.730;-1.932;2023-05-07T07:34:41;18;17;
49644;PMS5003;36494;50.730;-1.932;2023-05-07T07:37:06;16;15;
49644;PMS5003;36494;50.730;-1.932;2023-05-07T07:39:31;16;14;
49644;PMS5003;36494;50.730;-1.932;2023-05-07T07:41:57;18;16;
49644;PMS5003;36494;50.730;-1.932;2023-05-07T07:44:22;20;19;
49644;PMS5003;36494;50.730;-1.932;2023-05-07T07:46:48;18;17;
49644;PMS5003;36494;50.730;-1.932;2023-05-07T07:49:14;15;15;
49644;PMS5003;36494;50.730;-1.932;2023-05-07T07:51:40;21;20;
49644;PMS5003;36494;50.730;-1.932;2023-05-07T07:54:05;24;22;
49644;PMS5003;36494;50.730;-1.932;2023-05-07T07:56:31;21;19;
49644;PMS5003;36494;50.730;-1.932;2023-05-07T07:58:56;26;25;
49644;PMS5003;36494;50.730;-1.932;2023-05-07T08:01:22;26;26;
49644;PMS5003;36494;50.730;-1.932;2023-05-07T08:03:47;22;20;
49644;PMS5003;36494;50.730;-1.932;2023-05-07T08:06:12;31;28;
49644;PMS5003;36494;50.730;-1.932;2023-05-07T08:08:37;27;24;
49644;PMS5003;36494;50.730;-1.932;2023-05-07T08:11:03;25;23;
49644;PMS5003;36494;50.730;-1.932;2023-05-07T08:13:29;27;22;
49644;PMS5003;36494;50.730;-1.932;2023-05-07T08:15:55;23;22;
49644;PMS5003;36494;50.730;-1.932;2023-05-07T08:18:20;27;26;
49644;PMS5003;36494;50.730;-1.932;2023-05-07T08:20:45;23;23;
49644;PMS5003;36494;50.730;-1.932;2023-05-07T08:23:10;19;19;
49644;PMS5003;36494;50.730;-1.932;2023-05-07T08:25:36;23;21;
49644;PMS5003;36494;50.730;-1.932;2023-05-07T08:28:02;24;23;
49644;PMS5003;36494;50.730;-1.932;2023-05-07T08:30:27;25;24;
49644;PMS5003;36494;50.730;-1.932;2023-05-07T08:32:52;23;22;
49644;PMS5003;36494;50.730;-1.932;2023-05-07T08:35:18;22;21;
49644;PMS5003;36494;50.730;-1.932;2023-05-07T08:37:43;25;24;
49644;PMS5003;36494;50.730;-1.932;2023-05-07T08:40:09;26;23;
49644;PMS5003;36494;50.730;-1.932;2023-05-07T08:42:35;24;23;
49644;PMS5003;36494;50.730;-1.932;2023-05-07T08:44:59;25;24;
49644;PMS5003;36494;50.730;-1.932;2023-05-07T08:47:26;24;23;
49644;PMS5003;36494;50.730;-1.932;2023-05-07T08:49:50;23;20;
49644;PMS5003;36494;50.730;-1.932;2023-05-07T08:52:15;24;22;
49644;PMS5003;36494;50.730;-1.932;2023-05-07T08:54:41;19;18;
49644;PMS5003;36494;50.730;-1.932;2023-05-07T08:57:06;25;24;
49644;PMS5003;36494;50.730;-1.932;2023-05-07T08:59:32;25;23;
49644;PMS5003;36494;50.730;-1.932;2023-05-07T09:01:57;22;20;
49644;PMS5003;36494;50.730;-1.932;2023-05-07T09:04:23;21;18;
49644;PMS5003;36494;50.730;-1.932;2023-05-07T09:06:48;21;21;
49644;PMS5003;36494;50.730;-1.932;2023-05-07T09:09:14;23;21;
49644;PMS5003;36494;50.730;-1.932;2023-05-07T09:11:39;24;22;
49644;PMS5003;36494;50.730;-1.932;2023-05-07T09:14:04;22;21;
49644;PMS5003;36494;50.730;-1.932;2023-05-07T09:16:30;27;27;
49644;PMS5003;36494;50.730;-1.932;2023-05-07T09:18:57;26;23;
49644;PMS5003;36494;50.730;-1.932;2023-05-07T09:21:20;30;28;
49644;PMS5003;36494;50.730;-1.932;2023-05-07T09:23:45;25;23;
49644;PMS5003;36494;50.730;-1.932;2023-05-07T09:26:10;21;20;
49644;PMS5003;36494;50.730;-1.932;2023-05-07T09:28:37;28;25;
49644;PMS5003;36494;50.730;-1.932;2023-05-07T09:31:01;22;21;
49644;PMS5003;36494;50.730;-1.932;2023-05-07T09:33:28;24;23;
49644;PMS5003;36494;50.730;-1.932;2023-05-07T09:35:52;25;23;
49644;PMS5003;36494;50.730;-1.932;2023-05-07T09:38:18;19;18;
49644;PMS5003;36494;50.730;-1.932;2023-05-07T09:40:43;21;20;
49644;PMS5003;36494;50.730;-1.932;2023-05-07T09:43:09;22;20;
49644;PMS5003;36494;50.730;-1.932;2023-05-07T09:45:34;14;14;
49644;PMS5003;36494;50.730;-1.932;2023-05-07T09:47:59;14;14;
49644;PMS5003;36494;50.730;-1.932;2023-05-07T09:50:25;18;14;
49644;PMS5003;36494;50.730;-1.932;2023-05-07T09:52:50;12;11;
49644;PMS5003;36494;50.730;-1.932;2023-05-07T09:55:16;12;11;
49644;PMS5003;36494;50.730;-1.932;2023-05-07T09:57:42;14;14;
49644;PMS5003;36494;50.730;-1.932;2023-05-07T10:00:08;16;13;
49644;PMS5003;36494;50.730;-1.932;2023-05-07T10:02:33;10;10;
49644;PMS5003;36494;50.730;-1.932;2023-05-07T10:04:58;13;13;
49644;PMS5003;36494;50.730;-1.932;2023-05-07T10:07:23;13;11;
49644;PMS5003;36494;50.730;-1.932;2023-05-07T10:09:49;12;11;
49644;PMS5003;36494;50.730;-1.932;2023-05-07T10:12:14;11;10;
49644;PMS5003;36494;50.730;-1.932;2023-05-07T10:14:39;12;12;
49644;PMS5003;36494;50.730;-1.932;2023-05-07T10:17:05;10;10;
49644;PMS5003;36494;50.730;-1.932;2023-05-07T10:19:30;9;9;
49644;PMS5003;36494;50.730;-1.932;2023-05-07T10:21:56;10;9;
49644;PMS5003;36494;50.730;-1.932;2023-05-07T10:24:21;9;9;
49644;PMS5003;36494;50.730;-1.932;2023-05-07T10:26:47;7;7;
49644;PMS5003;36494;50.730;-1.932;2023-05-07T10:29:12;10;9;
49644;PMS5003;36494;50.730;-1.932;2023-05-07T10:31:41;8;7;
49644;PMS5003;36494;50.730;-1.932;2023-05-07T10:34:02;8;7;
49644;PMS5003;36494;50.730;-1.932;2023-05-07T10:36:28;8;8;
49644;PMS5003;36494;50.730;-1.932;2023-05-07T10:38:53;10;9;
49644;PMS5003;36494;50.730;-1.932;2023-05-07T10:41:18;9;9;
49644;PMS5003;36494;50.730;-1.932;2023-05-07T10:43:44;7;7;
49644;PMS5003;36494;50.730;-1.932;2023-05-07T10:46:09;7;7;
49644;PMS5003;36494;50.730;-1.932;2023-05-07T10:48:34;8;7;
49644;PMS5003;36494;50.730;-1.932;2023-05-07T10:53:25;9;9;
49644;PMS5003;36494;50.730;-1.932;2023-05-07T10:55:50;8;8;
49644;PMS5003;36494;50.730;-1.932;2023-05-07T10:58:24;9;7;
49644;PMS5003;36494;50.730;-1.932;2023-05-07T11:00:41;10;9;
49644;PMS5003;36494;50.730;-1.932;2023-05-07T11:03:06;7;7;
49644;PMS5003;36494;50.730;-1.932;2023-05-07T11:05:32;8;7;
49644;PMS5003;36494;50.730;-1.932;2023-05-07T11:07:57;6;6;
49644;PMS5003;36494;50.730;-1.932;2023-05-07T11:10:22;8;8;
49644;PMS5003;36494;50.730;-1.932;2023-05-07T11:12:49;6;6;
49644;PMS5003;36494;50.730;-1.932;2023-05-07T11:15:13;6;5;
49644;PMS5003;36494;50.730;-1.932;2023-05-07T11:20:04;6;6;
49644;PMS5003;36494;50.730;-1.932;2023-05-07T11:22:36;8;7;
49644;PMS5003;36494;50.730;-1.932;2023-05-07T11:24:56;7;7;
49644;PMS5003;36494;50.730;-1.932;2023-05-07T11:27:22;6;6;
49644;PMS5003;36494;50.730;-1.932;2023-05-07T11:29:47;7;7;
49644;PMS5003;36494;50.730;-1.932;2023-05-07T11:32:12;7;7;
49644;PMS5003;36494;50.730;-1.932;2023-05-07T11:34:37;7;6;
49644;PMS5003;36494;50.730;-1.932;2023-05-07T11:37:02;7;6;
49644;PMS5003;36494;50.730;-1.932;2023-05-07T11:39:29;4;4;
49644;PMS5003;36494;50.730;-1.932;2023-05-07T11:41:53;4;4;
49644;PMS5003;36494;50.730;-1.932;2023-05-07T11:44:18;4;4;
49644;PMS5003;36494;50.730;-1.932;2023-05-07T11:46:44;6;6;
49644;PMS5003;36494;50.730;-1.932;2023-05-07T11:49:09;6;5;
49644;PMS5003;36494;50.730;-1.932;2023-05-07T11:51:34;7;7;
49644;PMS5003;36494;50.730;-1.932;2023-05-07T11:54:00;4;4;
49644;PMS5003;36494;50.730;-1.932;2023-05-07T11:56:25;4;4;
49644;PMS5003;36494;50.730;-1.932;2023-05-07T11:58:50;6;6;
49644;PMS5003;36494;50.730;-1.932;2023-05-07T12:01:16;5;5;
49644;PMS5003;36494;50.730;-1.932;2023-05-07T12:03:41;3;3;
49644;PMS5003;36494;50.730;-1.932;2023-05-07T12:06:06;5;5;
49644;PMS5003;36494;50.730;-1.932;2023-05-07T12:08:31;5;5;
49644;PMS5003;36494;50.730;-1.932;2023-05-07T12:10:57;11;10;
49644;PMS5003;36494;50.730;-1.932;2023-05-07T12:13:23;5;5;
49644;PMS5003;36494;50.730;-1.932;2023-05-07T12:15:50;3;3;
49644;PMS5003;36494;50.730;-1.932;2023-05-07T12:18:14;3;3;
49644;PMS5003;36494;50.730;-1.932;2023-05-07T12:20:39;5;5;
49644;PMS5003;36494;50.730;-1.932;2023-05-07T12:23:05;5;5;
49644;PMS5003;36494;50.730;-1.932;2023-05-07T12:25:30;7;7;
49644;PMS5003;36494;50.730;-1.932;2023-05-07T12:27:55;4;4;
49644;PMS5003;36494;50.730;-1.932;2023-05-07T12:30:21;7;6;
49644;PMS5003;36494;50.730;-1.932;2023-05-07T12:32:46;5;5;
49644;PMS5003;36494;50.730;-1.932;2023-05-07T12:35:11;4;4;
49644;PMS5003;36494;50.730;-1.932;2023-05-07T12:37:36;3;3;
49644;PMS5003;36494;50.730;-1.932;2023-05-07T12:40:03;5;5;
49644;PMS5003;36494;50.730;-1.932;2023-05-07T12:42:27;4;4;
49644;PMS5003;36494;50.730;-1.932;2023-05-07T12:44:52;5;5;
49644;PMS5003;36494;50.730;-1.932;2023-05-07T12:47:18;6;6;
49644;PMS5003;36494;50.730;-1.932;2023-05-07T12:49:43;6;5;
49644;PMS5003;36494;50.730;-1.932;2023-05-07T12:52:08;5;5;
49644;PMS5003;36494;50.730;-1.932;2023-05-07T12:54:34;6;5;
49644;PMS5003;36494;50.730;-1.932;2023-05-07T12:57:00;5;5;
49644;PMS5003;36494;50.730;-1.932;2023-05-07T13:01:50;7;7;
49644;PMS5003;36494;50.730;-1.932;2023-05-07T13:04:15;3;3;
49644;PMS5003;36494;50.730;-1.932;2023-05-07T13:06:41;6;6;
49644;PMS5003;36494;50.730;-1.932;2023-05-07T13:09:06;3;3;
49644;PMS5003;36494;50.730;-1.932;2023-05-07T13:11:31;5;5;
49644;PMS5003;36494;50.730;-1.932;2023-05-07T13:13:56;5;5;
49644;PMS5003;36494;50.730;-1.932;2023-05-07T13:16:22;4;4;
49644;PMS5003;36494;50.730;-1.932;2023-05-07T13:18:47;4;4;
49644;PMS5003;36494;50.730;-1.932;2023-05-07T13:21:12;4;3;
49644;PMS5003;36494;50.730;-1.932;2023-05-07T13:23:38;4;4;
49644;PMS5003;36494;50.730;-1.932;2023-05-07T13:26:03;5;4;
49644;PMS5003;36494;50.730;-1.932;2023-05-07T13:28:28;5;5;
49644;PMS5003;36494;50.730;-1.932;2023-05-07T13:30:54;4;4;
49644;PMS5003;36494;50.730;-1.932;2023-05-07T13:33:19;3;3;
49644;PMS5003;36494;50.730;-1.932;2023-05-07T13:35:44;4;4;
49644;PMS5003;36494;50.730;-1.932;2023-05-07T13:38:09;3;3;
49644;PMS5003;36494;50.730;-1.932;2023-05-07T13:40:34;5;5;
49644;PMS5003;36494;50.730;-1.932;2023-05-07T13:43:00;3;3;
49644;PMS5003;36494;50.730;-1.932;2023-05-07T13:45:25;3;3;
49644;PMS5003;36494;50.730;-1.932;2023-05-07T13:47:50;4;4;
49644;PMS5003;36494;50.730;-1.932;2023-05-07T13:50:15;4;4;
49644;PMS5003;36494;50.730;-1.932;2023-05-07T13:52:41;4;4;
49644;PMS5003;36494;50.730;-1.932;2023-05-07T13:55:06;4;4;
49644;PMS5003;36494;50.730;-1.932;2023-05-07T13:57:31;4;3;
49644;PMS5003;36494;50.730;-1.932;2023-05-07T13:59:57;7;6;
49644;PMS5003;36494;50.730;-1.932;2023-05-07T14:02:22;7;6;
49644;PMS5003;36494;50.730;-1.932;2023-05-07T14:04:47;5;5;
49644;PMS5003;36494;50.730;-1.932;2023-05-07T14:07:12;5;5;
49644;PMS5003;36494;50.730;-1.932;2023-05-07T14:09:38;6;5;
49644;PMS5003;36494;50.730;-1.932;2023-05-07T14:12:03;5;5;
49644;PMS5003;36494;50.730;-1.932;2023-05-07T14:14:28;6;5;
49644;PMS5003;36494;50.730;-1.932;2023-05-07T14:16:53;6;5;
49644;PMS5003;36494;50.730;-1.932;2023-05-07T14:19:19;5;4;
49644;PMS5003;36494;50.730;-1.932;2023-05-07T14:21:44;5;5;
49644;PMS5003;36494;50.730;-1.932;2023-05-07T14:24:10;4;4;
49644;PMS5003;36494;50.730;-1.932;2023-05-07T14:26:35;7;7;
49644;PMS5003;36494;50.730;-1.932;2023-05-07T14:29:00;6;5;
49644;PMS5003;36494;50.730;-1.932;2023-05-07T14:31:25;5;4;
49644;PMS5003;36494;50.730;-1.932;2023-05-07T14:33:50;5;5;
49644;PMS5003;36494;50.730;-1.932;2023-05-07T14:36:16;5;4;
49644;PMS5003;36494;50.730;-1.932;2023-05-07T14:38:41;5;5;
49644;PMS5003;36494;50.730;-1.932;2023-05-07T14:41:06;6;6;
49644;PMS5003;36494;50.730;-1.932;2023-05-07T14:43:31;4;4;
49644;PMS5003;36494;50.730;-1.932;2023-05-07T14:45:57;5;5;
49644;PMS5003;36494;50.730;-1.932;2023-05-07T14:48:22;5;5;
49644;PMS5003;36494;50.730;-1.932;2023-05-07T14:50:47;6;6;
49644;PMS5003;36494;50.730;-1.932;2023-05-07T14:53:12;7;6;
49644;PMS5003;36494;50.730;-1.932;2023-05-07T14:55:38;3;3;
49644;PMS5003;36494;50.730;-1.932;2023-05-07T14:58:03;4;4;
49644;PMS5003;36494;50.730;-1.932;2023-05-07T15:00:28;5;5;
49644;PMS5003;36494;50.730;-1.932;2023-05-07T15:02:54;5;5;
49644;PMS5003;36494;50.730;-1.932;2023-05-07T15:05:19;5;5;
49644;PMS5003;36494;50.730;-1.932;2023-05-07T15:07:45;4;4;
49644;PMS5003;36494;50.730;-1.932;2023-05-07T15:10:10;5;4;
49644;PMS5003;36494;50.730;-1.932;2023-05-07T15:12:35;6;5;
49644;PMS5003;36494;50.730;-1.932;2023-05-07T15:15:01;6;4;
49644;PMS5003;36494;50.730;-1.932;2023-05-07T15:17:26;3;3;
49644;PMS5003;36494;50.730;-1.932;2023-05-07T15:19:51;5;5;
49644;PMS5003;36494;50.730;-1.932;2023-05-07T15:22:16;5;4;
49644;PMS5003;36494;50.730;-1.932;2023-05-07T15:24:42;5;5;
49644;PMS5003;36494;50.730;-1.932;2023-05-07T15:27:07;5;5;
49644;PMS5003;36494;50.730;-1.932;2023-05-07T15:29:32;4;4;
49644;PMS5003;36494;50.730;-1.932;2023-05-07T15:31:57;6;5;
49644;PMS5003;36494;50.730;-1.932;2023-05-07T15:34:23;4;4;
49644;PMS5003;36494;50.730;-1.932;2023-05-07T15:36:48;4;4;
49644;PMS5003;36494;50.730;-1.932;2023-05-07T15:39:14;4;4;
49644;PMS5003;36494;50.730;-1.932;2023-05-07T15:41:39;7;6;
49644;PMS5003;36494;50.730;-1.932;2023-05-07T15:44:04;7;7;
49644;PMS5003;36494;50.730;-1.932;2023-05-07T15:46:29;6;6;
49644;PMS5003;36494;50.730;-1.932;2023-05-07T15:48:55;11;9;
49644;PMS5003;36494;50.730;-1.932;2023-05-07T15:51:21;8;8;
49644;PMS5003;36494;50.730;-1.932;2023-05-07T15:53:47;7;7;
49644;PMS5003;36494;50.730;-1.932;2023-05-07T15:56:12;6;6;
49644;PMS5003;36494;50.730;-1.932;2023-05-07T15:58:37;7;7;
49644;PMS5003;36494;50.730;-1.932;2023-05-07T16:01:03;7;6;
49644;PMS5003;36494;50.730;-1.932;2023-05-07T16:03:28;6;6;
49644;PMS5003;36494;50.730;-1.932;2023-05-07T16:05:53;4;4;
49644;PMS5003;36494;50.730;-1.932;2023-05-07T16:08:18;5;5;